Time;durP1;ratioP1;P1;durP2;ratioP2;P2;SDS_P1;SDS_P2;PMS_P1;PMS_P2;Temp;Humidity;BMP_temperature;BMP_pressure;BME280_temperature;BME280_humidity;BME280_pressure;Samples;Min_cycle;Max_cycle;Signal;HPM_P1;HPM_P2
2022/04/28 00:02:24;;;;;;;0.10;0.10;;;14.10;99.90;;;;;;4897291;29;20037;-78
2022/04/28 00:04:50;;;;;;;0.28;0.28;;;14.20;99.90;;;;;;4897088;29;20032;-78
2022/04/28 00:07:15;;;;;;;0.30;0.10;;;14.20;99.90;;;;;;4897495;29;20373;-74
2022/04/28 00:09:41;;;;;;;4.30;0.20;;;14.20;99.90;;;;;;4896825;29;20021;-78
2022/04/28 00:12:10;;;;;;;2.08;0.20;;;14.20;99.90;;;;;;4897783;29;20056;-77
2022/04/28 00:14:39;;;;;;;0.00;0.00;;;14.20;99.90;;;;;;4898741;29;20028;-74
2022/04/28 00:20:26;;;;;;;4.57;0.68;;;14.20;99.90;;;;;;4896596;29;20047;-78
2022/04/28 00:22:52;;;;;;;0.00;0.00;;;14.20;99.90;;;;;;4897258;29;20021;-74
2022/04/28 00:25:18;;;;;;;0.08;0.08;;;14.20;99.90;;;;;;4896870;29;20108;-74
2022/04/28 00:27:43;;;;;;;0.10;0.10;;;14.20;99.90;;;;;;4897258;29;20106;-74
2022/04/28 00:30:09;;;;;;;0.00;0.00;;;14.10;99.90;;;;;;4900618;29;20017;-78
2022/04/28 00:32:36;;;;;;;0.10;0.10;;;14.10;99.90;;;;;;4900673;29;20033;-78
2022/04/28 00:35:02;;;;;;;0.17;0.17;;;14.10;99.90;;;;;;4904520;29;20025;-78
2022/04/28 00:37:28;;;;;;;0.08;0.08;;;14.10;99.90;;;;;;4908242;29;20031;-74
2022/04/28 00:39:53;;;;;;;0.38;0.08;;;14.10;99.90;;;;;;4938076;29;20020;-74
2022/04/28 00:42:20;;;;;;;0.30;0.17;;;14.10;99.90;;;;;;4938228;29;20084;-78
2022/04/28 00:44:46;;;;;;;0.00;0.00;;;14.20;99.90;;;;;;4937004;29;20111;-78
2022/04/28 00:47:12;;;;;;;0.65;0.20;;;14.10;99.90;;;;;;4938209;29;20031;-78
2022/04/28 00:52:24;;;;;;;0.35;0.10;;;14.10;99.90;;;;;;4938133;29;20035;-73
2022/04/28 00:54:54;;;;;;;0.70;0.10;;;14.10;99.90;;;;;;4925761;29;20025;-74
2022/04/28 00:57:21;;;;;;;0.10;0.10;;;14.10;99.90;;;;;;4919025;29;20024;-78
2022/04/28 00:59:48;;;;;;;0.52;0.00;;;14.10;99.90;;;;;;4918796;29;20032;-78
2022/04/28 01:02:16;;;;;;;0.08;0.08;;;14.10;99.90;;;;;;4918489;29;20442;-73
2022/04/28 01:04:42;;;;;;;1.00;0.40;;;14.10;99.90;;;;;;4919124;29;20388;-78
2022/04/28 01:07:08;;;;;;;0.00;0.00;;;14.20;99.90;;;;;;4919037;29;20052;-74
2022/04/28 01:09:37;;;;;;;0.00;0.00;;;14.20;99.90;;;;;;4918451;29;20492;-78
2022/04/28 01:12:14;;;;;;;0.10;0.10;;;14.20;99.90;;;;;;4918726;29;20056;-74
2022/04/28 01:14:41;;;;;;;72.28;3.33;;;14.20;99.90;;;;;;4917873;29;20582;-74
2022/04/28 01:17:07;;;;;;;0.13;0.10;;;14.20;99.90;;;;;;4918732;29;20040;-78
2022/04/28 01:19:33;;;;;;;0.13;0.13;;;14.20;99.90;;;;;;4918041;29;20073;-74
2022/04/28 01:21:58;;;;;;;0.25;0.25;;;14.10;99.90;;;;;;4918649;29;20051;-74
2022/04/28 01:24:24;;;;;;;0.00;0.00;;;14.10;99.90;;;;;;4918479;29;20067;-78
2022/04/28 01:26:53;;;;;;;2.10;0.30;;;14.10;99.90;;;;;;4918486;29;20052;-74
2022/04/28 01:29:19;;;;;;;0.20;0.10;;;14.20;99.90;;;;;;4917553;29;20084;-78
2022/04/28 01:31:44;;;;;;;0.25;0.10;;;14.20;99.90;;;;;;4918501;29;20073;-74
2022/04/28 01:34:10;;;;;;;4.35;0.20;;;14.10;99.90;;;;;;4917865;29;20031;-78
2022/04/28 01:36:36;;;;;;;0.08;0.08;;;14.10;99.90;;;;;;4918314;29;20032;-77
2022/04/28 01:39:04;;;;;;;5.00;0.25;;;14.10;99.90;;;;;;4933249;29;20403;-74
2022/04/28 01:41:30;;;;;;;3.13;0.17;;;14.00;99.90;;;;;;4937158;29;20055;-74
2022/04/28 01:43:56;;;;;;;0.65;0.22;;;14.00;99.90;;;;;;4937361;29;20059;-74
2022/04/28 01:46:22;;;;;;;0.05;0.05;;;14.00;99.90;;;;;;4937199;29;20027;-74
2022/04/28 01:48:48;;;;;;;0.10;0.10;;;14.00;99.90;;;;;;4937649;29;20034;-73
2022/04/28 01:56:46;;;;;;;0.08;0.05;;;13.90;99.90;;;;;;4899090;29;20526;-78
2022/04/28 01:59:12;;;;;;;0.28;0.20;;;13.90;99.90;;;;;;4899066;29;20025;-74
2022/04/28 02:01:38;;;;;;;0.40;0.15;;;13.90;99.90;;;;;;4899035;29;20512;-78
2022/04/28 02:04:03;;;;;;;0.10;0.10;;;13.90;99.90;;;;;;4898018;29;20025;-74
2022/04/28 02:06:29;;;;;;;0.52;0.40;;;13.80;99.90;;;;;;4899205;29;20039;-74
2022/04/28 02:08:55;;;;;;;0.10;0.10;;;13.90;99.90;;;;;;4898236;29;20111;-73
2022/04/28 02:11:21;;;;;;;0.85;0.28;;;13.90;99.90;;;;;;4898298;29;20051;-78
2022/04/28 02:13:46;;;;;;;0.20;0.20;;;13.90;99.90;;;;;;4898524;29;20071;-78
2022/04/28 02:16:12;;;;;;;0.10;0.08;;;13.80;99.90;;;;;;4898760;29;20033;-78
2022/04/28 02:18:38;;;;;;;0.38;0.38;;;13.80;99.90;;;;;;4897421;29;20051;-74
2022/04/28 02:21:03;;;;;;;0.00;0.00;;;13.90;99.90;;;;;;4896901;29;20036;-78
2022/04/28 02:23:29;;;;;;;6.13;0.35;;;13.80;99.90;;;;;;4898470;29;20484;-74
2022/04/28 02:25:55;;;;;;;0.10;0.10;;;13.80;99.90;;;;;;4898552;29;20048;-74
2022/04/28 02:28:20;;;;;;;0.20;0.20;;;13.80;99.90;;;;;;4898636;29;20031;-78
2022/04/28 02:30:46;;;;;;;1.67;0.52;;;13.80;99.90;;;;;;4898199;29;20404;-74
2022/04/28 02:33:11;;;;;;;0.35;0.13;;;13.70;99.90;;;;;;4898460;29;20033;-74
2022/04/28 02:35:38;;;;;;;0.20;0.20;;;13.70;99.90;;;;;;4911333;29;20131;-78
2022/04/28 02:38:04;;;;;;;0.77;0.38;;;13.70;99.90;;;;;;4937648;29;20027;-74
2022/04/28 02:40:30;;;;;;;0.20;0.20;;;13.80;99.90;;;;;;4936651;29;20506;-78
2022/04/28 02:42:56;;;;;;;0.43;0.43;;;13.70;99.90;;;;;;4936240;29;20036;-78
2022/04/28 02:45:21;;;;;;;0.38;0.22;;;13.70;99.90;;;;;;4934860;29;20028;-78
2022/04/28 02:47:47;;;;;;;3.83;0.45;;;13.80;99.90;;;;;;4935951;29;20079;-73
2022/04/28 02:50:12;;;;;;;0.93;0.28;;;13.70;99.90;;;;;;4935477;29;20059;-78
2022/04/28 02:52:39;;;;;;;0.10;0.10;;;13.70;99.90;;;;;;4934688;29;20027;-78
2022/04/28 02:55:05;;;;;;;0.22;0.13;;;13.70;99.90;;;;;;4910147;29;20032;-78
2022/04/28 02:57:31;;;;;;;0.20;0.20;;;13.80;99.90;;;;;;4897717;29;20056;-74
2022/04/28 02:59:57;;;;;;;1.55;0.50;;;13.70;99.90;;;;;;4898079;29;20507;-78
2022/04/28 03:02:24;;;;;;;0.43;0.20;;;13.70;99.90;;;;;;4898049;29;20423;-74
2022/04/28 03:04:50;;;;;;;0.30;0.20;;;13.70;99.90;;;;;;4897541;29;20025;-74
2022/04/28 03:12:44;;;;;;;0.30;0.30;;;13.70;99.90;;;;;;4898160;29;20040;-78
2022/04/28 03:15:11;;;;;;;0.65;0.40;;;13.70;99.90;;;;;;4897025;29;20024;-78
2022/04/28 03:17:36;;;;;;;0.15;0.13;;;13.70;99.90;;;;;;4898032;29;20112;-74
2022/04/28 03:20:03;;;;;;;0.13;0.13;;;13.70;99.90;;;;;;4896229;29;20086;-77
2022/04/28 03:22:29;;;;;;;0.30;0.30;;;13.70;99.90;;;;;;4896716;29;20041;-74
2022/04/28 03:24:54;;;;;;;0.17;0.10;;;13.60;99.90;;;;;;4897453;29;20029;-74
2022/04/28 03:27:20;;;;;;;5.53;0.73;;;13.60;99.90;;;;;;4897736;29;20088;-78
2022/04/28 03:29:46;;;;;;;0.00;0.00;;;13.60;99.90;;;;;;4910482;29;20534;-74
2022/04/28 03:32:11;;;;;;;0.13;0.13;;;13.60;99.90;;;;;;4896539;29;20051;-78
2022/04/28 03:34:37;;;;;;;0.38;0.10;;;13.60;99.90;;;;;;4902889;29;20034;-78
2022/04/28 03:37:03;;;;;;;0.13;0.08;;;13.50;99.90;;;;;;4917126;29;20136;-74
2022/04/28 03:39:29;;;;;;;1.17;0.28;;;13.50;99.90;;;;;;4935248;29;20067;-74
2022/04/28 03:41:55;;;;;;;0.25;0.25;;;13.50;99.90;;;;;;4935432;29;20028;-74
2022/04/28 03:44:20;;;;;;;0.08;0.08;;;13.50;99.90;;;;;;4934172;29;20031;-78
2022/04/28 03:46:46;;;;;;;1.27;0.80;;;13.50;99.90;;;;;;4935609;29;20103;-78
2022/04/28 03:49:12;;;;;;;1.00;0.22;;;13.50;99.90;;;;;;4934348;29;20479;-78
2022/04/28 03:51:37;;;;;;;0.20;0.05;;;13.40;99.90;;;;;;4935524;29;20019;-78
2022/04/28 03:54:03;;;;;;;0.10;0.10;;;13.40;99.90;;;;;;4926112;29;20036;-74
2022/04/28 03:56:31;;;;;;;0.20;0.20;;;13.50;99.90;;;;;;4896790;29;20034;-74
2022/04/28 03:59:01;;;;;;;2.90;0.93;;;13.40;99.90;;;;;;4897210;29;20112;-78
2022/04/28 04:01:30;;;;;;;2.15;0.77;;;13.50;99.90;;;;;;4897525;29;20032;-78
2022/04/28 04:03:56;;;;;;;0.17;0.17;;;13.50;99.90;;;;;;4900853;29;20033;-74
2022/04/28 04:06:21;;;;;;;0.85;0.20;;;13.40;99.90;;;;;;4901186;29;20073;-74
2022/04/28 04:08:48;;;;;;;0.00;0.00;;;13.40;99.90;;;;;;4899533;29;20032;-74
2022/04/28 04:11:14;;;;;;;0.47;0.47;;;13.40;99.90;;;;;;4900562;29;20048;-77
2022/04/28 04:13:39;;;;;;;0.30;0.13;;;13.40;99.90;;;;;;4900199;29;20074;-78
2022/04/28 04:16:06;;;;;;;3.50;1.13;;;13.40;99.90;;;;;;4900860;29;20029;-78
2022/04/28 04:18:31;;;;;;;0.57;0.22;;;13.40;99.90;;;;;;4900961;29;20483;-78
2022/04/28 04:20:57;;;;;;;0.00;0.00;;;13.30;99.90;;;;;;4901191;29;20061;-78
2022/04/28 04:23:23;;;;;;;0.30;0.30;;;13.30;99.90;;;;;;4900234;29;20037;-78
2022/04/28 04:25:49;;;;;;;0.38;0.20;;;13.30;99.90;;;;;;4900417;29;20605;-74
2022/04/28 04:28:14;;;;;;;0.10;0.10;;;13.30;99.90;;;;;;4900913;29;20551;-79
2022/04/28 04:33:24;;;;;;;1.13;0.35;;;13.30;99.90;;;;;;4900876;29;20043;-81
2022/04/28 04:35:50;;;;;;;0.20;0.20;;;13.30;99.90;;;;;;4900323;29;20029;-76
2022/04/28 04:38:16;;;;;;;0.60;0.50;;;13.30;99.90;;;;;;4919676;29;20036;-81
2022/04/28 04:40:41;;;;;;;1.02;0.30;;;13.30;99.90;;;;;;4938285;29;20023;-76
2022/04/28 04:43:13;;;;;;;4.63;0.20;;;13.30;99.90;;;;;;4938447;29;20090;-77
2022/04/28 04:45:42;;;;;;;0.08;0.08;;;13.30;99.90;;;;;;4938262;29;20031;-76
2022/04/28 04:48:08;;;;;;;1.08;1.00;;;13.20;99.90;;;;;;4938549;29;20028;-80
2022/04/28 04:50:34;;;;;;;0.28;0.13;;;13.20;99.90;;;;;;4938052;29;20075;-77
2022/04/28 04:53:00;;;;;;;0.38;0.10;;;13.20;99.90;;;;;;4937021;29;20063;-77
2022/04/28 04:55:25;;;;;;;0.22;0.22;;;13.10;99.90;;;;;;4907373;29;20559;-77
2022/04/28 04:57:51;;;;;;;0.90;0.90;;;13.10;99.90;;;;;;4898188;29;20043;-80
2022/04/28 05:00:17;;;;;;;0.52;0.30;;;13.00;99.90;;;;;;4898173;29;20033;-80
2022/04/28 05:02:42;;;;;;;3.47;0.40;;;13.00;99.90;;;;;;4900063;29;20396;-80
2022/04/28 05:05:08;;;;;;;0.30;0.30;;;12.90;99.90;;;;;;4900199;29;20024;-80
2022/04/28 05:07:34;;;;;;;0.57;0.30;;;12.90;99.90;;;;;;4905238;29;20104;-76
2022/04/28 05:10:00;;;;;;;0.75;0.28;;;12.80;99.90;;;;;;4899737;29;20056;-77
2022/04/28 05:12:26;;;;;;;0.10;0.10;;;12.80;99.90;;;;;;4917474;29;20127;-74
2022/04/28 05:14:51;;;;;;;0.30;0.25;;;12.80;99.90;;;;;;4915783;29;20034;-74
2022/04/28 05:17:17;;;;;;;0.63;0.40;;;12.80;99.90;;;;;;4918804;29;20115;-80
2022/04/28 05:19:42;;;;;;;0.00;0.00;;;12.80;99.90;;;;;;4918312;29;20028;-76
2022/04/28 05:22:08;;;;;;;0.47;0.45;;;12.80;99.90;;;;;;4919094;29;20079;-80
2022/04/28 05:24:34;;;;;;;0.20;0.20;;;12.80;99.90;;;;;;4918562;29;20503;-76
2022/04/28 05:26:59;;;;;;;1.77;0.30;;;12.90;99.90;;;;;;4918323;29;20123;-80
2022/04/28 05:29:25;;;;;;;0.28;0.28;;;12.90;99.90;;;;;;4918137;29;20064;-80
2022/04/28 05:31:51;;;;;;;0.30;0.20;;;12.90;99.90;;;;;;4918414;29;20051;-78
2022/04/28 05:34:16;;;;;;;2.72;0.88;;;12.90;99.90;;;;;;4917591;29;20467;-78
2022/04/28 05:36:44;;;;;;;2.95;0.35;;;12.90;99.90;;;;;;4917090;29;20492;-75
2022/04/28 05:39:10;;;;;;;0.63;0.63;;;13.00;99.90;;;;;;4933655;29;20035;-74
2022/04/28 05:41:36;;;;;;;0.45;0.40;;;13.00;99.90;;;;;;4937091;29;20554;-74
2022/04/28 05:46:46;;;;;;;0.45;0.35;;;13.00;99.90;;;;;;4931685;29;20035;-79
2022/04/28 05:49:11;;;;;;;0.10;0.05;;;13.00;99.90;;;;;;4926271;29;20024;-76
2022/04/28 05:51:40;;;;;;;0.28;0.28;;;13.00;99.90;;;;;;4936709;29;20019;-76
2022/04/28 05:54:06;;;;;;;0.10;0.10;;;13.10;99.90;;;;;;4926901;29;20029;-79
2022/04/28 05:56:31;;;;;;;0.90;0.50;;;13.10;99.90;;;;;;4897380;29;20503;-80
2022/04/28 05:58:57;;;;;;;0.75;0.52;;;13.10;99.90;;;;;;4923565;29;20487;-80
2022/04/28 06:01:23;;;;;;;0.00;0.00;;;13.10;99.90;;;;;;4936150;29;20035;-76
2022/04/28 06:03:48;;;;;;;0.77;0.45;;;13.10;99.90;;;;;;4919537;29;20034;-76
2022/04/28 06:06:14;;;;;;;0.22;0.22;;;13.10;99.90;;;;;;4896502;29;20157;-76
2022/04/28 06:08:39;;;;;;;0.93;0.60;;;13.10;99.90;;;;;;4928270;29;20038;-80
2022/04/28 06:11:05;;;;;;;0.20;0.13;;;13.10;99.90;;;;;;4905467;29;20031;-79
2022/04/28 06:13:31;;;;;;;0.10;0.10;;;13.10;99.90;;;;;;4916074;29;20127;-79
2022/04/28 06:15:58;;;;;;;0.43;0.43;;;13.20;99.90;;;;;;4915853;29;20043;-80
2022/04/28 06:18:24;;;;;;;0.00;0.00;;;13.20;99.90;;;;;;4918194;29;20034;-77
2022/04/28 06:20:50;;;;;;;2.45;0.50;;;13.20;99.90;;;;;;4904786;29;20112;-79
2022/04/28 06:23:16;;;;;;;2.03;0.60;;;13.20;99.90;;;;;;4932625;29;20055;-79
2022/04/28 06:25:41;;;;;;;2.13;0.68;;;13.30;99.90;;;;;;4933634;29;20048;-76
2022/04/28 06:28:09;;;;;;;0.10;0.10;;;13.30;99.90;;;;;;4934161;29;20036;-79
2022/04/28 06:30:36;;;;;;;0.82;0.22;;;13.40;99.90;;;;;;4931205;29;20483;-76
2022/04/28 06:33:01;;;;;;;0.75;0.55;;;13.40;99.90;;;;;;4931796;29;20031;-76
2022/04/28 06:35:27;;;;;;;0.30;0.30;;;13.50;99.90;;;;;;4930579;29;20558;-80
2022/04/28 06:37:53;;;;;;;0.25;0.25;;;13.50;99.90;;;;;;4917710;29;20031;-78
2022/04/28 06:40:19;;;;;;;0.00;0.00;;;13.60;99.90;;;;;;4934195;29;20442;-74
2022/04/28 06:42:49;;;;;;;0.30;0.30;;;13.70;99.90;;;;;;4919335;29;20032;-77
2022/04/28 06:45:15;;;;;;;0.32;0.20;;;13.70;99.90;;;;;;4929204;29;20028;-75
2022/04/28 06:47:41;;;;;;;0.17;0.17;;;13.80;99.90;;;;;;4929183;29;20019;-76
2022/04/28 06:50:06;;;;;;;0.22;0.20;;;13.90;99.90;;;;;;4917362;29;20048;-77
2022/04/28 06:52:38;;;;;;;0.88;0.30;;;13.90;99.90;;;;;;4906556;29;20079;-76
2022/04/28 06:55:05;;;;;;;2.50;0.38;;;13.90;99.90;;;;;;4920006;29;20043;-74
2022/04/28 06:57:31;;;;;;;0.20;0.20;;;14.00;99.90;;;;;;4932452;29;20055;-74
2022/04/28 06:59:56;;;;;;;0.10;0.10;;;14.00;99.90;;;;;;4924324;29;20139;-77
2022/04/28 07:02:22;;;;;;;12.07;0.85;;;14.10;99.90;;;;;;4916377;29;20028;-79
2022/04/28 07:04:48;;;;;;;0.55;0.55;;;14.20;99.90;;;;;;4926230;29;20434;-78
2022/04/28 07:07:14;;;;;;;0.88;0.35;;;14.20;99.90;;;;;;4926605;29;20051;-73
2022/04/28 07:09:40;;;;;;;1.30;0.40;;;14.30;99.90;;;;;;4922782;29;20042;-74
2022/04/28 07:12:06;;;;;;;0.43;0.32;;;14.50;99.90;;;;;;4920800;29;20418;-75
2022/04/28 07:14:33;;;;;;;1.45;0.30;;;14.60;99.90;;;;;;4925137;29;20039;-79
2022/04/28 07:16:59;;;;;;;1.05;0.40;;;14.70;99.90;;;;;;4932683;29;20035;-79
2022/04/28 07:19:25;;;;;;;0.40;0.30;;;15.00;99.90;;;;;;4899304;29;20073;-78
2022/04/28 07:21:51;;;;;;;1.30;0.52;;;15.10;99.90;;;;;;4931378;29;20051;-75
2022/04/28 07:24:17;;;;;;;0.70;0.25;;;15.20;99.90;;;;;;4933076;29;20036;-75
2022/04/28 07:26:42;;;;;;;1.52;0.60;;;15.30;99.90;;;;;;4931220;29;20518;-79
2022/04/28 07:29:08;;;;;;;1.75;0.60;;;15.50;99.90;;;;;;4930299;29;20427;-79
2022/04/28 07:31:34;;;;;;;1.92;0.65;;;15.50;99.90;;;;;;4931244;29;20094;-74
2022/04/28 07:33:59;;;;;;;0.40;0.30;;;15.50;99.90;;;;;;4931297;29;20032;-79
2022/04/28 07:36:25;;;;;;;1.52;0.80;;;15.50;99.90;;;;;;4931363;29;20503;-79
2022/04/28 07:38:51;;;;;;;1.10;0.50;;;15.70;99.90;;;;;;4935976;29;20027;-80
2022/04/28 07:41:16;;;;;;;0.52;0.30;;;15.90;99.90;;;;;;4935010;29;20035;-80
2022/04/28 07:43:42;;;;;;;4.88;1.40;;;16.40;99.90;;;;;;4935136;29;20055;-80
2022/04/28 07:46:08;;;;;;;2.72;0.85;;;16.50;99.90;;;;;;4934397;29;20031;-76
2022/04/28 07:48:34;;;;;;;0.38;0.38;;;16.60;99.90;;;;;;4928832;29;20028;-75
2022/04/28 07:50:59;;;;;;;0.22;0.20;;;16.60;99.90;;;;;;4928032;29;20028;-75
2022/04/28 07:53:26;;;;;;;0.35;0.35;;;17.00;99.90;;;;;;4932068;29;20027;-79
2022/04/28 07:58:37;;;;;;;0.63;0.63;;;17.70;99.90;;;;;;4934394;29;20039;-75
2022/04/28 08:01:03;;;;;;;0.57;0.43;;;18.10;99.90;;;;;;4927825;29;20067;-75
2022/04/28 08:03:29;;;;;;;3.20;0.43;;;18.30;99.90;;;;;;4931093;29;20102;-75
2022/04/28 08:05:55;;;;;;;1.00;0.90;;;19.00;99.90;;;;;;4933672;29;20484;-78
2022/04/28 08:08:21;;;;;;;1.05;0.63;;;19.40;99.60;;;;;;4934332;29;20435;-75
2022/04/28 08:10:47;;;;;;;1.20;0.90;;;19.00;99.10;;;;;;4911568;29;20031;-75
2022/04/28 08:13:13;;;;;;;1.35;0.60;;;18.70;99.50;;;;;;4931373;29;20032;-75
2022/04/28 08:15:38;;;;;;;0.50;0.50;;;19.70;99.00;;;;;;4920724;29;20032;-75
2022/04/28 08:18:04;;;;;;;2.58;1.00;;;20.70;97.20;;;;;;4909035;29;20384;-78
2022/04/28 08:20:30;;;;;;;1.10;0.60;;;20.50;97.20;;;;;;4927088;29;20027;-77
2022/04/28 08:22:57;;;;;;;1.30;0.60;;;21.00;96.50;;;;;;4935525;29;20055;-78
2022/04/28 08:25:22;;;;;;;2.17;0.80;;;20.50;96.80;;;;;;4935057;29;20148;-76
2022/04/28 08:27:48;;;;;;;1.02;0.73;;;20.10;97.70;;;;;;4934864;29;20565;-74
2022/04/28 08:30:14;;;;;;;1.13;0.93;;;21.10;96.90;;;;;;4934512;29;20062;-78
2022/04/28 08:32:40;;;;;;;6.03;0.75;;;22.10;95.50;;;;;;4934526;29;20462;-77
2022/04/28 08:35:06;;;;;;;1.08;0.95;;;22.20;95.00;;;;;;4935740;29;20035;-73
2022/04/28 08:37:32;;;;;;;4.32;0.85;;;21.80;94.90;;;;;;4935854;29;20387;-73
2022/04/28 08:39:58;;;;;;;1.08;0.98;;;21.00;95.50;;;;;;4919687;29;20044;-73
2022/04/28 08:42:26;;;;;;;11.82;2.03;;;20.50;96.80;;;;;;4907781;29;20027;-77
2022/04/28 08:44:58;;;;;;;0.50;0.50;;;20.30;97.00;;;;;;4907194;29;20032;-78
2022/04/28 08:47:24;;;;;;;0.82;0.80;;;21.20;96.40;;;;;;4905837;29;20035;-74
2022/04/28 08:49:50;;;;;;;0.60;0.45;;;22.60;94.60;;;;;;4907120;29;20036;-77
2022/04/28 08:52:17;;;;;;;1.02;0.80;;;22.60;94.10;;;;;;4910654;29;20033;-73
2022/04/28 08:54:45;;;;;;;1.17;0.68;;;23.00;93.80;;;;;;4925614;29;20044;-73
2022/04/28 08:57:13;;;;;;;0.85;0.70;;;22.70;93.90;;;;;;4907191;29;20051;-78
2022/04/28 08:59:40;;;;;;;0.50;0.50;;;22.20;94.40;;;;;;4906131;29;20526;-78
2022/04/28 09:02:06;;;;;;;2.25;1.08;;;22.50;94.00;;;;;;4911025;29;20051;-74
2022/04/28 09:04:31;;;;;;;2.15;0.95;;;23.20;93.80;;;;;;4929334;29;20418;-73
2022/04/28 09:06:58;;;;;;;0.47;0.47;;;22.50;93.70;;;;;;4904935;29;20020;-73
2022/04/28 09:09:26;;;;;;;0.88;0.55;;;21.50;95.00;;;;;;4897431;29;20036;-77
2022/04/28 09:11:56;;;;;;;0.75;0.47;;;21.00;95.80;;;;;;4922831;29;20024;-78
2022/04/28 09:14:23;;;;;;;1.33;0.50;;;21.20;95.80;;;;;;4913449;29;20035;-73
2022/04/28 09:16:51;;;;;;;1.05;0.60;;;22.60;94.70;;;;;;4915757;29;20024;-73
2022/04/28 09:19:17;;;;;;;0.82;0.70;;;23.70;93.60;;;;;;4908809;29;20040;-73
2022/04/28 09:21:43;;;;;;;0.60;0.60;;;24.60;92.50;;;;;;4916104;29;20107;-73
2022/04/28 09:24:10;;;;;;;3.33;0.75;;;24.90;92.70;;;;;;4914643;29;20036;-78
2022/04/28 09:26:38;;;;;;;2.58;0.90;;;23.70;92.80;;;;;;4915783;29;20056;-74
2022/04/28 09:29:06;;;;;;;1.25;0.90;;;22.80;93.50;;;;;;4915911;29;20641;-73
2022/04/28 09:31:36;;;;;;;3.28;0.80;;;22.50;94.30;;;;;;4914216;29;20467;-74
2022/04/28 09:34:21;;;;;;;0.65;0.65;;;23.30;93.40;;;;;;4916070;29;20435;-73
2022/04/28 09:36:48;;;;;;;0.60;0.60;;;23.60;93.30;;;;;;4933714;29;20036;-77
2022/04/28 09:44:52;;;;;;;1.38;1.20;;;25.40;91.50;;;;;;4934077;29;20031;-75
2022/04/28 09:47:19;;;;;;;1.70;1.00;;;25.20;91.30;;;;;;4925273;29;20511;-73
2022/04/28 09:49:58;;;;;;;2.38;1.02;;;24.70;91.70;;;;;;4925000;29;20072;-75
2022/04/28 09:52:26;;;;;;;0.95;0.80;;;24.30;92.20;;;;;;4896566;29;20025;-76
2022/04/28 09:54:54;;;;;;;1.60;1.15;;;24.60;92.20;;;;;;4907008;29;20483;-74
2022/04/28 09:57:20;;;;;;;0.93;0.68;;;25.60;91.30;;;;;;4915273;29;20484;-73
2022/04/28 09:59:55;;;;;;;0.77;0.60;;;26.10;91.30;;;;;;4914338;29;20036;-76
2022/04/28 10:02:23;;;;;;;1.00;1.00;;;26.20;91.10;;;;;;4914875;29;20538;-75
2022/04/28 10:04:50;;;;;;;0.77;0.73;;;25.80;90.70;;;;;;4922076;29;20037;-74
2022/04/28 10:07:16;;;;;;;1.50;0.82;;;25.40;91.40;;;;;;4918977;29;20102;-74
2022/04/28 10:09:48;;;;;;;1.25;0.75;;;25.30;91.60;;;;;;4928508;29;20028;-73
2022/04/28 10:12:18;;;;;;;0.90;0.70;;;24.80;92.10;;;;;;4896915;29;20021;-74
2022/04/28 10:14:45;;;;;;;0.55;0.55;;;24.60;91.80;;;;;;4904943;29;20075;-75
2022/04/28 10:17:19;;;;;;;1.40;0.55;;;24.10;91.50;;;;;;4907087;29;20029;-75
2022/04/28 10:19:50;;;;;;;0.88;0.70;;;23.70;92.30;;;;;;4917603;29;20442;-74
2022/04/28 10:22:20;;;;;;;0.90;0.60;;;23.70;91.50;;;;;;4934066;29;20042;-74
2022/04/28 10:33:10;;;;;;;2.92;0.65;;;25.10;91.20;;;;;;4934062;29;20042;-75
2022/04/28 10:35:43;;;;;;;1.23;1.15;;;26.10;90.30;;;;;;4934075;29;20036;-74
2022/04/28 10:38:21;;;;;;;0.52;0.52;;;26.30;90.10;;;;;;4934407;29;20028;-73
2022/04/28 10:41:03;;;;;;;0.98;0.70;;;26.40;89.40;;;;;;4933755;29;20028;-75
2022/04/28 10:43:31;;;;;;;1.13;0.77;;;26.40;89.90;;;;;;4935200;29;20024;-75
2022/04/28 10:45:59;;;;;;;1.83;0.80;;;25.30;90.40;;;;;;4935174;29;20446;-73
2022/04/28 10:48:31;;;;;;;1.48;0.75;;;24.80;91.50;;;;;;4904774;29;20031;-74
2022/04/28 10:51:26;;;;;;;1.23;0.90;;;24.60;91.40;;;;;;4905132;29;20071;-74
2022/04/28 10:54:09;;;;;;;0.98;0.88;;;24.20;91.60;;;;;;4920398;29;20036;-74
2022/04/28 10:56:54;;;;;;;;;;;24.00;91.60;;;;;;4897169;29;20024;-75
2022/04/28 10:59:46;;;;;;;0.43;0.43;;;24.00;92.20;;;;;;4897162;29;20459;-74
2022/04/28 11:02:11;;;;;;;0.63;0.60;;;24.10;91.80;;;;;;4895753;29;20404;-74
2022/04/28 11:04:39;;;;;;;1.27;0.85;;;24.20;91.20;;;;;;4896215;29;20033;-75
2022/04/28 11:07:28;;;;;;;0.50;0.50;;;24.20;91.10;;;;;;4900748;29;20155;-75
2022/04/28 11:09:58;;;;;;;1.20;0.90;;;24.00;91.40;;;;;;4910398;29;20071;-73
2022/04/28 11:12:31;;;;;;;2.58;0.90;;;23.50;91.40;;;;;;4896222;29;20036;-73
2022/04/28 11:15:00;;;;;;;0.43;0.40;;;23.30;92.40;;;;;;4908431;29;20082;-74
2022/04/28 11:17:30;;;;;;;0.35;0.32;;;23.10;92.70;;;;;;4905782;29;20484;-73
2022/04/28 11:19:59;;;;;;;0.73;0.60;;;23.10;93.30;;;;;;4910397;29;20024;-73
2022/04/28 11:22:26;;;;;;;0.85;0.70;;;23.00;92.50;;;;;;4929212;29;20035;-74
2022/04/28 11:24:52;;;;;;;0.75;0.75;;;22.90;93.00;;;;;;4930198;29;20083;-74
2022/04/28 11:27:22;;;;;;;0.77;0.50;;;22.90;93.70;;;;;;4922675;29;20044;-73
2022/04/28 11:29:54;;;;;;;0.82;0.73;;;22.80;93.60;;;;;;4908440;29;20024;-74
2022/04/28 11:32:20;;;;;;;0.95;0.55;;;22.90;93.90;;;;;;4913892;29;20020;-74
2022/04/28 11:34:48;;;;;;;2.60;0.70;;;22.80;94.20;;;;;;4912396;29;20043;-74
2022/04/28 11:37:14;;;;;;;0.50;0.40;;;22.80;93.80;;;;;;4918289;29;20152;-73
2022/04/28 11:39:42;;;;;;;0.73;0.38;;;22.90;93.80;;;;;;4932732;29;20402;-73
2022/04/28 11:42:10;;;;;;;5.30;1.15;;;22.90;93.60;;;;;;4932930;29;20036;-73
2022/04/28 11:44:46;;;;;;;1.88;0.43;;;22.80;94.40;;;;;;4932808;29;20128;-73
2022/04/28 11:47:13;;;;;;;0.57;0.57;;;22.50;93.90;;;;;;4923027;29;20028;-73
2022/04/28 11:49:39;;;;;;;0.98;0.70;;;22.80;94.00;;;;;;4894070;29;20036;-74
2022/04/28 11:52:25;;;;;;;1.67;1.05;;;23.00;93.60;;;;;;4895617;29;20063;-73
2022/04/28 11:55:03;;;;;;;0.75;0.60;;;23.00;93.40;;;;;;4910717;29;20067;-73
2022/04/28 11:57:30;;;;;;;0.82;0.70;;;22.80;94.00;;;;;;4896332;29;20396;-74
2022/04/28 11:59:56;;;;;;;1.58;1.13;;;22.90;93.90;;;;;;4931779;29;20573;-74
2022/04/28 12:02:24;;;;;;;0.88;0.63;;;22.90;93.60;;;;;;4931845;29;20520;-74
2022/04/28 12:04:51;;;;;;;0.30;0.30;;;23.00;93.50;;;;;;4932337;29;20035;-73
2022/04/28 12:07:21;;;;;;;3.97;1.00;;;23.00;94.00;;;;;;4922948;29;20080;-73
2022/04/28 12:15:19;;;;;;;1.88;1.15;;;22.40;94.30;;;;;;4920974;29;20042;-74
2022/04/28 12:20:52;;;;;;;0.60;0.60;;;22.50;95.70;;;;;;4916799;29;20035;-78
2022/04/28 12:23:37;;;;;;;1.73;0.30;;;22.50;95.00;;;;;;4933700;29;20032;-75
2022/04/28 12:26:06;;;;;;;0.40;0.40;;;22.70;94.80;;;;;;4897454;29;20048;-76
2022/04/28 12:28:39;;;;;;;0.70;0.70;;;22.90;94.30;;;;;;4925401;29;20515;-75
2022/04/28 12:31:08;;;;;;;0.57;0.50;;;23.40;94.80;;;;;;4934030;29;20054;-73
2022/04/28 12:33:36;;;;;;;1.30;1.10;;;23.80;93.30;;;;;;4934396;29;20160;-73
2022/04/28 12:36:06;;;;;;;1.85;0.80;;;23.60;93.30;;;;;;4934169;29;20054;-74
2022/04/28 12:38:35;;;;;;;2.13;0.50;;;23.40;94.00;;;;;;4934961;29;20078;-74
2022/04/28 12:41:23;;;;;;;0.85;0.60;;;23.40;93.80;;;;;;4933647;29;20099;-74
2022/04/28 12:43:50;;;;;;;1.45;0.90;;;23.40;93.40;;;;;;4935168;29;20027;-75
2022/04/28 12:46:21;;;;;;;0.70;0.70;;;23.50;93.40;;;;;;4934429;29;20032;-74
2022/04/28 12:48:54;;;;;;;0.83;0.70;;;23.70;94.20;;;;;;4899470;29;20116;-74
2022/04/28 12:51:26;;;;;;;2.05;0.90;;;23.50;93.10;;;;;;4896529;29;20025;-74
2022/04/28 12:54:07;;;;;;;2.38;1.10;;;23.70;93.90;;;;;;4896734;29;20032;-75
2022/04/28 12:56:33;;;;;;;0.60;0.60;;;23.80;94.40;;;;;;4896236;29;20033;-74
2022/04/28 12:59:03;;;;;;;1.00;0.75;;;23.70;93.90;;;;;;4896146;29;20111;-74
2022/04/28 13:01:29;;;;;;;0.30;0.20;;;23.50;93.90;;;;;;4909310;29;20132;-76
2022/04/28 13:03:57;;;;;;;0.65;0.35;;;23.20;93.90;;;;;;4930613;29;20028;-74
2022/04/28 13:06:28;;;;;;;0.75;0.50;;;23.00;93.50;;;;;;4931938;29;20032;-74
2022/04/28 13:08:55;;;;;;;1.02;0.73;;;23.00;93.60;;;;;;4930720;29;20031;-74
2022/04/28 13:11:24;;;;;;;2.95;0.45;;;23.40;94.30;;;;;;4900021;29;20024;-74
2022/04/28 13:13:51;;;;;;;1.30;1.08;;;24.00;93.40;;;;;;4897287;29;20119;-74
2022/04/28 13:16:17;;;;;;;1.13;0.80;;;24.40;92.20;;;;;;4919031;29;20502;-75
2022/04/28 13:18:44;;;;;;;1.80;0.95;;;24.70;92.20;;;;;;4900454;29;20547;-75
2022/04/28 13:21:12;;;;;;;0.82;0.65;;;24.90;91.90;;;;;;4905164;29;20055;-75
2022/04/28 13:23:42;;;;;;;1.88;0.90;;;24.40;92.40;;;;;;4934565;29;20470;-74
2022/04/28 13:26:09;;;;;;;1.05;0.47;;;24.40;93.20;;;;;;4858504;29;1131064;-74
2022/04/28 13:28:35;;;;;;;7.32;0.88;;;24.40;93.40;;;;;;4897111;29;20037;-75
2022/04/28 13:31:02;;;;;;;0.77;0.68;;;24.60;93.00;;;;;;4905873;29;20357;-75
2022/04/28 13:33:27;;;;;;;0.90;0.90;;;24.80;92.60;;;;;;4934515;29;20098;-75
2022/04/28 13:35:53;;;;;;;0.82;0.50;;;24.90;92.60;;;;;;4934428;29;20035;-75
2022/04/28 13:38:19;;;;;;;1.17;0.98;;;25.10;92.60;;;;;;4935531;29;20027;-75